Time;durP1;ratioP1;P1;durP2;ratioP2;P2;SDS_P1;SDS_P2;PMS_P1;PMS_P2;Temp;Humidity;BMP_temperature;BMP_pressure;BME280_temperature;BME280_humidity;BME280_pressure;Samples;Min_cycle;Max_cycle;Signal;HPM_P1;HPM_P2
2023/11/16 00:00:12;;;;;;;5.30;2.77;;;9.30;99.90;;;;;;5030780;28;20174;-66
2023/11/16 00:02:42;;;;;;;6.13;2.47;;;9.30;99.90;;;;;;5030576;28;20246;-66
2023/11/16 00:05:12;;;;;;;9.17;3.83;;;9.30;99.90;;;;;;5030891;28;20468;-66
2023/11/16 00:07:42;;;;;;;9.23;2.57;;;9.30;99.90;;;;;;5029962;28;20591;-66
2023/11/16 00:10:11;;;;;;;6.17;2.40;;;9.30;99.90;;;;;;5030667;28;20429;-66
2023/11/16 00:12:39;;;;;;;6.23;2.60;;;9.30;99.90;;;;;;5029800;28;20438;-66
2023/11/16 00:15:06;;;;;;;8.97;2.67;;;9.40;99.90;;;;;;5030251;28;20425;-67
2023/11/16 00:17:39;;;;;;;7.70;2.70;;;9.40;99.90;;;;;;5012512;28;20428;-66
2023/11/16 00:20:10;;;;;;;7.83;3.10;;;9.30;99.90;;;;;;5030484;28;21038;-66
2023/11/16 00:22:37;;;;;;;6.77;3.00;;;9.40;99.90;;;;;;5030283;28;20432;-66
2023/11/16 00:25:07;;;;;;;7.00;2.40;;;9.40;99.90;;;;;;5030618;28;20474;-66
2023/11/16 00:27:36;;;;;;;9.00;2.50;;;9.40;99.90;;;;;;5030364;28;20470;-66
2023/11/16 00:30:03;;;;;;;7.77;2.63;;;9.40;99.90;;;;;;5030050;28;20424;-67
2023/11/16 00:32:29;;;;;;;9.67;3.17;;;9.30;99.90;;;;;;5029425;28;20537;-66
2023/11/16 00:34:55;;;;;;;8.40;2.57;;;9.30;99.90;;;;;;5029408;28;20433;-66
2023/11/16 00:37:20;;;;;;;5.50;2.10;;;9.20;99.90;;;;;;5029744;28;20485;-66
2023/11/16 00:39:47;;;;;;;4.93;1.60;;;9.10;99.90;;;;;;5030596;28;20182;-66
2023/11/16 00:42:13;;;;;;;9.47;3.20;;;9.10;99.90;;;;;;5030446;28;20229;-66
2023/11/16 00:44:39;;;;;;;7.20;3.57;;;9.10;99.90;;;;;;5028954;28;20436;-66
2023/11/16 00:47:05;;;;;;;10.23;3.00;;;9.10;99.90;;;;;;5030044;28;20447;-66
2023/11/16 00:49:31;;;;;;;7.50;2.80;;;9.00;99.90;;;;;;5029115;28;20206;-66
2023/11/16 00:51:57;;;;;;;9.13;2.70;;;9.10;99.90;;;;;;5029758;28;20495;-66
2023/11/16 00:54:22;;;;;;;9.60;2.93;;;9.10;99.90;;;;;;5028271;28;20185;-66
2023/11/16 00:56:51;;;;;;;4.77;1.90;;;9.20;99.90;;;;;;5029598;28;20684;-66
2023/11/16 00:59:20;;;;;;;6.93;2.50;;;9.30;99.90;;;;;;5030245;28;20179;-67
2023/11/16 01:01:47;;;;;;;6.20;2.93;;;9.30;99.90;;;;;;5030572;28;20421;-66
2023/11/16 01:04:13;;;;;;;5.70;2.90;;;9.30;99.90;;;;;;5029544;28;20828;-66
2023/11/16 01:06:39;;;;;;;8.07;2.07;;;9.30;99.90;;;;;;5028563;28;20943;-67
2023/11/16 01:09:07;;;;;;;5.87;3.10;;;9.30;99.90;;;;;;5029949;28;20559;-66
2023/11/16 01:11:33;;;;;;;7.60;3.40;;;9.30;99.90;;;;;;5029133;28;20441;-66
2023/11/16 01:14:01;;;;;;;6.73;2.83;;;9.30;99.90;;;;;;5029618;28;21260;-66
2023/11/16 01:16:40;;;;;;;4.23;2.23;;;9.30;99.90;;;;;;5029674;28;20439;-66
2023/11/16 01:19:08;;;;;;;5.17;2.10;;;9.20;99.90;;;;;;5030788;28;20432;-66
2023/11/16 01:21:41;;;;;;;8.93;2.60;;;9.20;99.90;;;;;;5029766;28;20465;-66
2023/11/16 01:24:08;;;;;;;6.53;2.60;;;9.20;99.90;;;;;;5029889;28;20452;-66
2023/11/16 01:26:35;;;;;;;4.17;2.50;;;9.20;99.90;;;;;;5028597;28;20924;-66
2023/11/16 01:29:08;;;;;;;8.33;2.30;;;9.20;99.90;;;;;;5030010;28;20515;-66
2023/11/16 01:31:37;;;;;;;6.17;2.40;;;9.20;99.90;;;;;;5029513;28;20531;-66
2023/11/16 01:34:02;;;;;;;8.03;2.50;;;9.20;99.90;;;;;;5029336;28;20432;-66
2023/11/16 01:36:28;;;;;;;10.37;2.33;;;9.20;99.90;;;;;;5029219;28;20511;-65
2023/11/16 01:38:54;;;;;;;5.10;2.33;;;9.20;99.90;;;;;;5028919;28;20225;-66
2023/11/16 01:41:20;;;;;;;3.70;2.23;;;9.30;99.90;;;;;;5029892;28;20891;-66
2023/11/16 01:43:46;;;;;;;5.67;3.17;;;9.20;99.90;;;;;;5028907;28;20598;-66
2023/11/16 01:46:12;;;;;;;13.30;4.50;;;9.20;99.90;;;;;;5029076;28;20439;-66
2023/11/16 01:48:48;;;;;;;6.37;2.47;;;9.30;99.90;;;;;;5027587;28;20469;-66
2023/11/16 01:51:16;;;;;;;9.40;3.00;;;9.20;99.90;;;;;;5029274;28;20479;-66
2023/11/16 01:53:45;;;;;;;7.47;3.20;;;9.20;99.90;;;;;;5027769;28;20927;-66
2023/11/16 01:56:15;;;;;;;7.37;2.43;;;9.30;99.90;;;;;;5029408;28;20459;-66
2023/11/16 01:58:44;;;;;;;11.10;2.20;;;9.30;99.90;;;;;;5029753;28;21339;-66
2023/11/16 02:01:10;;;;;;;4.90;2.47;;;9.20;99.90;;;;;;5029166;28;20455;-66
2023/11/16 02:03:36;;;;;;;7.57;2.63;;;9.30;99.90;;;;;;5028764;28;20435;-67
2023/11/16 02:06:03;;;;;;;8.27;2.23;;;9.30;99.90;;;;;;5027747;28;20417;-66
2023/11/16 02:08:30;;;;;;;8.60;3.30;;;9.30;99.90;;;;;;5035205;28;21655;-66
2023/11/16 02:10:56;;;;;;;4.90;2.80;;;9.30;99.90;;;;;;5029240;28;21154;-66
2023/11/16 02:13:23;;;;;;;7.80;2.53;;;9.30;99.90;;;;;;5028606;28;20531;-66
2023/11/16 02:15:52;;;;;;;4.23;2.40;;;9.20;99.90;;;;;;5028813;28;20441;-66
2023/11/16 02:18:18;;;;;;;10.93;2.77;;;9.20;99.90;;;;;;5027546;28;20512;-66
2023/11/16 02:20:47;;;;;;;4.90;2.27;;;9.20;99.90;;;;;;5028312;28;21378;-67
2023/11/16 02:23:14;;;;;;;5.37;2.40;;;9.10;99.90;;;;;;5028808;28;20189;-67
2023/11/16 02:25:43;;;;;;;4.93;2.17;;;9.20;99.90;;;;;;5029338;28;20557;-67
2023/11/16 02:28:09;;;;;;;5.63;2.10;;;9.20;99.90;;;;;;5032595;28;20472;-67
2023/11/16 02:30:35;;;;;;;7.70;2.40;;;9.10;99.90;;;;;;5032435;28;20431;-67
2023/11/16 02:33:03;;;;;;;10.17;2.50;;;9.20;99.90;;;;;;5032867;28;20704;-67
2023/11/16 02:35:29;;;;;;;5.40;2.33;;;9.20;99.90;;;;;;5032383;28;20464;-67
2023/11/16 02:37:54;;;;;;;6.73;3.20;;;9.30;99.90;;;;;;5032259;28;20535;-67
2023/11/16 02:40:20;;;;;;;6.33;2.40;;;9.30;99.90;;;;;;5032763;28;21064;-67
2023/11/16 02:42:47;;;;;;;6.43;2.47;;;9.30;99.90;;;;;;5031618;28;20186;-67
2023/11/16 02:45:13;;;;;;;6.60;4.07;;;9.40;99.90;;;;;;5032296;28;20433;-67
2023/11/16 02:47:39;;;;;;;7.17;2.53;;;9.40;99.90;;;;;;5032386;28;20428;-67
2023/11/16 02:50:06;;;;;;;7.63;2.70;;;9.30;99.90;;;;;;5032193;28;20424;-67
2023/11/16 02:52:33;;;;;;;11.20;3.23;;;9.30;99.90;;;;;;5032121;28;20431;-67
2023/11/16 02:54:59;;;;;;;6.97;2.60;;;9.30;99.90;;;;;;5031598;28;20436;-67
2023/11/16 02:57:25;;;;;;;8.80;2.97;;;9.30;99.90;;;;;;5031905;28;20523;-67
2023/11/16 02:59:51;;;;;;;7.50;2.23;;;9.30;99.90;;;;;;5031942;28;20434;-67
2023/11/16 03:02:18;;;;;;;7.83;3.13;;;9.30;99.90;;;;;;5032421;28;20493;-67
2023/11/16 03:04:47;;;;;;;7.13;2.53;;;9.30;99.90;;;;;;5030850;28;20443;-67
2023/11/16 03:07:13;;;;;;;6.83;2.30;;;9.30;99.90;;;;;;5032050;28;20443;-67
2023/11/16 03:09:38;;;;;;;7.03;3.00;;;9.20;99.90;;;;;;5032282;28;20459;-67
2023/11/16 03:12:05;;;;;;;3.63;2.60;;;9.20;99.90;;;;;;5031445;28;20190;-66
2023/11/16 03:14:30;;;;;;;6.43;2.20;;;9.30;99.90;;;;;;5031064;28;20227;-68
2023/11/16 03:16:57;;;;;;;9.10;2.63;;;9.20;99.90;;;;;;5030259;28;20424;-67
2023/11/16 03:19:23;;;;;;;4.10;2.10;;;9.30;99.90;;;;;;5032142;28;20194;-67
2023/11/16 03:21:51;;;;;;;10.77;2.63;;;9.30;99.90;;;;;;5030851;28;20478;-67
2023/11/16 03:24:17;;;;;;;4.37;2.77;;;9.30;99.90;;;;;;5031586;28;20248;-67
2023/11/16 03:26:44;;;;;;;4.33;2.50;;;9.30;99.90;;;;;;5031309;28;20523;-67
2023/11/16 03:29:09;;;;;;;7.47;2.80;;;9.20;99.90;;;;;;5031093;28;20224;-67
2023/11/16 03:31:35;;;;;;;6.97;2.40;;;9.30;99.90;;;;;;5032291;28;20428;-68
2023/11/16 03:34:04;;;;;;;4.37;2.13;;;9.20;99.90;;;;;;5030637;28;20194;-67
2023/11/16 03:36:31;;;;;;;9.40;3.30;;;9.20;99.90;;;;;;5032520;28;21374;-67
2023/11/16 03:38:58;;;;;;;7.33;2.60;;;9.10;99.90;;;;;;5029488;28;20432;-67
2023/11/16 03:41:24;;;;;;;5.27;3.13;;;9.10;99.90;;;;;;5031465;28;20502;-67
2023/11/16 03:43:50;;;;;;;8.47;2.50;;;9.10;99.90;;;;;;5030682;28;20489;-67
2023/11/16 03:46:15;;;;;;;6.20;3.10;;;9.10;99.90;;;;;;5030849;28;20982;-68
2023/11/16 03:48:41;;;;;;;9.17;2.70;;;9.10;99.90;;;;;;5031654;28;20297;-67
2023/11/16 03:51:07;;;;;;;7.73;2.40;;;9.10;99.90;;;;;;5030643;28;20208;-68
2023/11/16 03:53:33;;;;;;;6.60;2.47;;;9.10;99.90;;;;;;5030082;28;20665;-67
2023/11/16 03:55:59;;;;;;;7.27;3.03;;;9.10;99.90;;;;;;5030038;28;20428;-67
2023/11/16 03:58:28;;;;;;;4.10;2.30;;;9.10;99.90;;;;;;5031426;28;20874;-67
2023/11/16 04:00:54;;;;;;;8.40;2.37;;;9.10;99.90;;;;;;5030765;28;20453;-67
2023/11/16 04:03:22;;;;;;;6.83;2.77;;;9.10;99.90;;;;;;5029780;28;20568;-67
2023/11/16 04:05:48;;;;;;;6.13;2.70;;;9.10;99.90;;;;;;5030917;28;20198;-67
2023/11/16 04:08:15;;;;;;;4.37;2.10;;;9.10;99.90;;;;;;5029786;28;20984;-67
2023/11/16 04:10:40;;;;;;;8.17;3.20;;;9.10;99.90;;;;;;5031359;28;20217;-67
2023/11/16 04:13:06;;;;;;;7.10;3.10;;;9.10;99.90;;;;;;5029440;28;20515;-67
2023/11/16 04:15:32;;;;;;;11.43;3.30;;;9.10;99.90;;;;;;5030697;28;20186;-67
2023/11/16 04:17:59;;;;;;;7.40;2.80;;;9.20;99.90;;;;;;5028649;28;20188;-67
2023/11/16 04:20:27;;;;;;;7.67;2.80;;;9.10;99.90;;;;;;5030376;28;20431;-66
2023/11/16 04:22:53;;;;;;;7.80;3.60;;;9.10;99.90;;;;;;5030219;28;20429;-67
2023/11/16 04:25:25;;;;;;;5.80;3.43;;;9.10;99.90;;;;;;5029487;28;20441;-67
2023/11/16 04:27:54;;;;;;;7.97;3.23;;;9.10;99.90;;;;;;5030940;28;20498;-67
2023/11/16 04:30:20;;;;;;;5.37;2.80;;;9.10;99.90;;;;;;5030088;28;20441;-66
2023/11/16 04:32:46;;;;;;;9.80;2.60;;;9.10;99.90;;;;;;5030071;28;20437;-67
2023/11/16 04:35:15;;;;;;;7.87;2.80;;;9.00;99.90;;;;;;5028674;28;20443;-66
2023/11/16 04:37:41;;;;;;;8.63;2.87;;;9.00;99.90;;;;;;5031418;28;20428;-67
2023/11/16 04:40:13;;;;;;;12.63;3.40;;;8.90;99.90;;;;;;5029170;28;20519;-67
2023/11/16 04:42:43;;;;;;;9.53;3.47;;;8.90;99.90;;;;;;5030286;28;20466;-66
2023/11/16 04:45:11;;;;;;;9.00;3.57;;;8.90;99.90;;;;;;5028670;28;20539;-67
2023/11/16 04:47:39;;;;;;;8.17;4.07;;;8.90;99.90;;;;;;5030048;28;20424;-67
2023/11/16 04:50:10;;;;;;;9.37;3.10;;;8.90;99.90;;;;;;5028995;28;20861;-67
2023/11/16 04:52:54;;;;;;;9.00;3.87;;;8.90;99.90;;;;;;5029715;28;20408;-66
2023/11/16 04:55:20;;;;;;;7.50;3.87;;;9.00;99.90;;;;;;5029443;28;20429;-67
2023/11/16 04:57:45;;;;;;;10.57;3.73;;;8.90;99.90;;;;;;5029672;28;20495;-67
2023/11/16 05:00:13;;;;;;;8.20;2.80;;;8.90;99.90;;;;;;5029286;28;20243;-67
2023/11/16 05:02:39;;;;;;;6.63;3.10;;;8.80;99.90;;;;;;5029614;28;20189;-67
2023/11/16 05:05:05;;;;;;;8.40;3.43;;;8.80;99.90;;;;;;5028958;28;20878;-66
2023/11/16 05:07:30;;;;;;;8.97;3.00;;;8.80;99.90;;;;;;5029614;28;20205;-67
2023/11/16 05:09:58;;;;;;;9.30;3.13;;;8.90;99.90;;;;;;5030148;28;20188;-66
2023/11/16 05:12:27;;;;;;;6.87;3.33;;;8.90;99.90;;;;;;5029438;28;20186;-67
2023/11/16 05:14:56;;;;;;;7.27;3.30;;;8.90;99.90;;;;;;5028776;28;20429;-67
2023/11/16 05:17:22;;;;;;;6.70;4.10;;;8.90;99.90;;;;;;5028114;28;20439;-67
2023/11/16 05:19:47;;;;;;;5.97;3.00;;;8.80;99.90;;;;;;5029400;28;20425;-66
2023/11/16 05:22:14;;;;;;;5.53;2.77;;;8.80;99.90;;;;;;5029092;28;20504;-67
2023/11/16 05:24:39;;;;;;;8.43;3.30;;;8.80;99.90;;;;;;5029090;28;20229;-66
2023/11/16 05:27:05;;;;;;;10.10;3.50;;;8.80;99.90;;;;;;5029417;28;20432;-67
2023/11/16 05:29:31;;;;;;;5.03;3.40;;;8.80;99.90;;;;;;5029163;28;20216;-66
2023/11/16 05:31:58;;;;;;;7.33;3.23;;;8.80;99.90;;;;;;5029506;28;20185;-67
2023/11/16 05:34:24;;;;;;;6.03;3.03;;;8.90;99.90;;;;;;5028258;28;20439;-66
2023/11/16 05:36:51;;;;;;;6.50;3.60;;;8.90;99.90;;;;;;5030454;28;20456;-67
2023/11/16 05:39:19;;;;;;;6.43;3.17;;;8.90;99.90;;;;;;5029011;28;20441;-67
2023/11/16 05:41:45;;;;;;;4.53;2.93;;;8.90;99.90;;;;;;5029340;28;20441;-67
2023/11/16 05:44:12;;;;;;;7.87;3.70;;;8.90;99.90;;;;;;5027849;28;20436;-67
2023/11/16 05:46:38;;;;;;;7.97;3.10;;;8.80;99.90;;;;;;5028796;28;20490;-67
2023/11/16 05:49:06;;;;;;;8.50;4.07;;;8.80;99.90;;;;;;5030140;28;20472;-67
2023/11/16 05:51:38;;;;;;;10.67;3.70;;;8.80;99.90;;;;;;5029102;28;20425;-66
2023/11/16 05:54:07;;;;;;;5.47;3.93;;;8.80;99.90;;;;;;5028438;28;20776;-66
2023/11/16 05:56:40;;;;;;;9.60;3.67;;;8.70;99.90;;;;;;5028517;28;20425;-66
2023/11/16 05:59:10;;;;;;;6.27;3.63;;;8.80;99.90;;;;;;5029648;28;20439;-66
2023/11/16 06:01:37;;;;;;;5.23;3.00;;;8.80;99.90;;;;;;5030132;28;20477;-66
2023/11/16 06:04:05;;;;;;;5.10;2.93;;;8.80;99.90;;;;;;5031983;28;20444;-67
2023/11/16 06:06:31;;;;;;;6.30;3.17;;;8.70;99.90;;;;;;5032404;28;20516;-67
2023/11/16 06:08:57;;;;;;;8.00;3.37;;;8.80;99.90;;;;;;5033158;28;20549;-67
2023/11/16 06:11:23;;;;;;;7.00;3.50;;;8.70;99.90;;;;;;5032362;28;20493;-66
2023/11/16 06:13:50;;;;;;;9.63;3.37;;;8.80;99.90;;;;;;5032312;28;20420;-67
2023/11/16 06:16:16;;;;;;;9.40;3.20;;;8.80;99.90;;;;;;5031661;28;20449;-68
2023/11/16 06:18:42;;;;;;;11.20;3.43;;;8.90;99.90;;;;;;5032234;28;20831;-66
2023/11/16 06:21:09;;;;;;;7.20;3.47;;;8.90;99.90;;;;;;5032497;28;20421;-67
2023/11/16 06:23:35;;;;;;;9.63;3.90;;;8.90;99.90;;;;;;5031232;28;20486;-66
2023/11/16 06:26:00;;;;;;;6.57;3.80;;;8.90;99.90;;;;;;5032026;28;20956;-66
2023/11/16 06:28:26;;;;;;;5.43;3.70;;;8.80;99.90;;;;;;5032476;28;20572;-67
2023/11/16 06:30:52;;;;;;;7.00;3.77;;;8.70;99.90;;;;;;5032687;28;20207;-66
2023/11/16 06:33:17;;;;;;;4.33;3.20;;;8.70;99.90;;;;;;5032367;28;20610;-66
2023/11/16 06:35:43;;;;;;;8.03;4.10;;;8.80;99.90;;;;;;5033003;28;20182;-66
2023/11/16 06:38:09;;;;;;;10.57;3.63;;;8.80;99.90;;;;;;5032859;28;20189;-67
2023/11/16 06:40:35;;;;;;;6.80;4.10;;;8.70;99.90;;;;;;5032266;28;20207;-67
2023/11/16 06:43:03;;;;;;;10.10;3.90;;;8.70;99.90;;;;;;5029872;28;20181;-67
2023/11/16 06:45:29;;;;;;;7.77;3.77;;;8.80;99.90;;;;;;5031388;28;20928;-66
2023/11/16 06:47:55;;;;;;;5.03;2.93;;;8.70;99.90;;;;;;5031234;28;20564;-66
2023/11/16 06:50:22;;;;;;;8.63;3.90;;;8.80;99.90;;;;;;5031557;28;20425;-67
2023/11/16 06:52:49;;;;;;;7.53;4.20;;;8.80;99.90;;;;;;5031462;28;20465;-66
2023/11/16 06:55:16;;;;;;;6.87;3.53;;;8.80;99.90;;;;;;5031077;28;20490;-67
2023/11/16 06:57:43;;;;;;;9.03;4.10;;;8.70;99.90;;;;;;5031385;28;20464;-67
2023/11/16 07:00:15;;;;;;;10.40;4.93;;;8.70;99.90;;;;;;5032044;28;20520;-66
2023/11/16 07:02:44;;;;;;;6.40;4.17;;;8.70;99.90;;;;;;5030932;28;20977;-66
2023/11/16 07:05:11;;;;;;;11.17;4.40;;;8.70;99.90;;;;;;5030851;28;20442;-67
2023/11/16 07:07:39;;;;;;;9.23;4.10;;;8.70;99.90;;;;;;5031426;28;21040;-66
2023/11/16 07:10:08;;;;;;;12.57;5.37;;;8.70;99.90;;;;;;5032373;28;21083;-67
2023/11/16 07:12:34;;;;;;;7.43;3.73;;;8.70;99.90;;;;;;5030742;28;20421;-67
2023/11/16 07:15:04;;;;;;;8.93;4.67;;;8.80;99.90;;;;;;5031745;28;20431;-66
2023/11/16 07:17:29;;;;;;;6.20;4.20;;;8.80;99.90;;;;;;5029693;28;20967;-67
2023/11/16 07:19:55;;;;;;;7.63;4.27;;;8.80;99.90;;;;;;5031037;28;20508;-66
2023/11/16 07:22:21;;;;;;;7.67;3.90;;;8.70;99.90;;;;;;5029865;28;20181;-68
2023/11/16 07:24:49;;;;;;;8.70;4.27;;;8.70;99.90;;;;;;5029278;28;20182;-68
2023/11/16 07:27:15;;;;;;;9.90;4.27;;;8.70;99.90;;;;;;5030081;28;20515;-68
2023/11/16 07:29:42;;;;;;;6.00;3.70;;;8.70;99.90;;;;;;5031324;28;20468;-68
2023/11/16 07:32:09;;;;;;;4.83;3.90;;;8.70;99.90;;;;;;5030351;28;20190;-68
2023/11/16 07:34:39;;;;;;;11.57;4.93;;;8.70;99.90;;;;;;5030616;28;20527;-68
2023/11/16 07:37:05;;;;;;;9.17;4.80;;;8.80;99.90;;;;;;5032624;28;21043;-68
2023/11/16 07:39:31;;;;;;;8.40;4.70;;;8.80;99.90;;;;;;5031432;28;20440;-68
2023/11/16 07:41:59;;;;;;;10.03;4.10;;;8.80;99.90;;;;;;5030676;28;20205;-68
2023/11/16 07:44:25;;;;;;;11.43;5.17;;;8.80;99.90;;;;;;5030118;28;20432;-68
2023/11/16 07:46:51;;;;;;;6.90;4.27;;;8.80;99.90;;;;;;5030613;28;20590;-68
2023/11/16 07:49:17;;;;;;;11.43;4.87;;;8.90;99.90;;;;;;5031357;28;20981;-68
2023/11/16 07:51:43;;;;;;;7.97;3.97;;;8.90;99.90;;;;;;5030806;28;20446;-68
2023/11/16 07:54:11;;;;;;;10.97;4.63;;;8.90;99.90;;;;;;5030621;28;20479;-68
2023/11/16 07:56:45;;;;;;;9.10;4.63;;;8.90;99.90;;;;;;5031038;28;20440;-68
2023/11/16 07:59:14;;;;;;;8.90;4.77;;;8.90;99.90;;;;;;5030827;28;20428;-68
2023/11/16 08:01:50;;;;;;;7.60;4.60;;;8.80;99.90;;;;;;5030423;28;20459;-68
2023/11/16 08:04:16;;;;;;;9.47;3.90;;;8.90;99.90;;;;;;5029599;28;20546;-68
2023/11/16 08:06:42;;;;;;;11.10;4.70;;;8.80;99.90;;;;;;5030696;28;20427;-68
2023/11/16 08:09:09;;;;;;;7.37;4.90;;;8.80;99.90;;;;;;5030780;28;20472;-68
2023/11/16 08:11:36;;;;;;;9.97;4.57;;;8.80;99.90;;;;;;5031088;28;20865;-68
2023/11/16 08:14:12;;;;;;;8.20;4.63;;;8.80;99.90;;;;;;5029676;28;20502;-68
2023/11/16 08:16:38;;;;;;;7.90;4.40;;;8.80;99.90;;;;;;5029665;28;20428;-69
2023/11/16 08:19:04;;;;;;;14.90;4.60;;;8.80;99.90;;;;;;5030848;28;20420;-68
2023/11/16 08:21:30;;;;;;;13.90;6.10;;;8.80;99.90;;;;;;5030060;28;20468;-68
2023/11/16 08:23:56;;;;;;;8.27;5.03;;;8.90;99.90;;;;;;5028568;28;20439;-68
2023/11/16 08:26:22;;;;;;;5.93;4.13;;;8.90;99.90;;;;;;5030429;28;20429;-68
2023/11/16 08:28:49;;;;;;;9.03;4.67;;;8.90;99.90;;;;;;5029761;28;20969;-68
2023/11/16 08:31:16;;;;;;;6.73;4.43;;;9.00;99.90;;;;;;5029974;28;20460;-68
2023/11/16 08:33:43;;;;;;;12.83;4.67;;;9.00;99.90;;;;;;5030298;28;20478;-68
2023/11/16 08:36:11;;;;;;;8.93;4.90;;;9.00;99.90;;;;;;5030317;28;20859;-68
2023/11/16 08:38:45;;;;;;;8.80;5.20;;;9.00;99.90;;;;;;5030758;28;20458;-68
2023/11/16 08:41:18;;;;;;;10.20;4.60;;;9.00;99.90;;;;;;5029247;28;20490;-68
2023/11/16 08:43:45;;;;;;;11.20;5.53;;;9.00;99.90;;;;;;5029899;28;20446;-68
2023/11/16 08:46:20;;;;;;;9.70;5.30;;;9.00;99.90;;;;;;5028915;28;20428;-69
2023/11/16 08:48:53;;;;;;;6.87;4.40;;;9.10;99.90;;;;;;5030308;28;20538;-68
2023/11/16 08:51:22;;;;;;;10.20;5.40;;;9.10;99.90;;;;;;5030708;28;20424;-68
2023/11/16 08:53:50;;;;;;;11.80;5.33;;;9.20;99.90;;;;;;5030237;28;20428;-68
2023/11/16 08:56:16;;;;;;;9.07;5.30;;;9.20;99.90;;;;;;5030656;28;20430;-68
2023/11/16 08:58:47;;;;;;;9.53;5.23;;;9.10;99.90;;;;;;5030701;28;20436;-69
2023/11/16 09:01:17;;;;;;;14.33;5.47;;;9.10;99.90;;;;;;5030317;28;20547;-68
2023/11/16 09:03:49;;;;;;;8.40;4.90;;;9.10;99.90;;;;;;5031282;28;20441;-68
2023/11/16 09:06:16;;;;;;;12.03;5.43;;;9.20;99.90;;;;;;5031358;28;20436;-68
2023/11/16 09:08:49;;;;;;;7.93;4.73;;;9.10;99.90;;;;;;5032015;28;20483;-69
2023/11/16 09:11:17;;;;;;;8.40;5.03;;;9.10;99.90;;;;;;5031670;28;21382;-68
2023/11/16 09:13:44;;;;;;;8.00;4.97;;;9.20;99.90;;;;;;5031231;28;21248;-68
2023/11/16 09:16:10;;;;;;;7.77;5.60;;;9.20;99.90;;;;;;5027752;28;20471;-68
2023/11/16 09:18:38;;;;;;;10.27;5.40;;;9.20;99.90;;;;;;5029712;28;20947;-68
2023/11/16 09:21:06;;;;;;;6.07;4.93;;;9.20;99.90;;;;;;5029164;28;20448;-68
2023/11/16 09:23:33;;;;;;;10.73;5.10;;;9.20;99.90;;;;;;5029457;28;20606;-68
2023/11/16 09:26:00;;;;;;;6.80;5.43;;;9.20;99.90;;;;;;5045728;28;20444;-68
2023/11/16 09:28:25;;;;;;;7.87;4.77;;;9.10;99.90;;;;;;5029586;28;20980;-68
2023/11/16 09:30:51;;;;;;;8.07;5.17;;;9.10;99.90;;;;;;5031392;28;20454;-68
2023/11/16 09:33:18;;;;;;;7.27;4.80;;;9.10;99.90;;;;;;5029993;28;20728;-68
2023/11/16 09:35:45;;;;;;;9.70;5.17;;;9.10;99.90;;;;;;5033410;28;20190;-68
2023/11/16 09:38:11;;;;;;;9.07;5.30;;;9.20;99.90;;;;;;5034719;28;20443;-68
2023/11/16 09:40:38;;;;;;;6.03;4.83;;;9.20;99.90;;;;;;5035005;28;20468;-68
2023/11/16 09:43:17;;;;;;;9.93;5.10;;;9.20;99.90;;;;;;5034493;28;20438;-69
2023/11/16 09:45:50;;;;;;;6.93;5.27;;;9.20;99.90;;;;;;5034865;28;20463;-68
2023/11/16 09:48:20;;;;;;;8.67;4.53;;;9.30;99.90;;;;;;5032108;28;20486;-68
2023/11/16 09:50:53;;;;;;;8.60;5.20;;;9.20;99.90;;;;;;5032885;28;20477;-68
2023/11/16 09:53:27;;;;;;;8.73;4.33;;;9.20;99.90;;;;;;5031545;28;20427;-69
2023/11/16 09:55:56;;;;;;;8.47;4.20;;;9.20;99.90;;;;;;5032964;28;20551;-68
2023/11/16 09:58:28;;;;;;;8.93;4.93;;;9.30;99.90;;;;;;5032368;28;20449;-69
2023/11/16 10:00:58;;;;;;;7.43;4.70;;;9.30;99.90;;;;;;5033287;28;20480;-69
2023/11/16 10:03:26;;;;;;;10.57;5.40;;;9.30;99.90;;;;;;5031903;28;20452;-69
2023/11/16 10:05:55;;;;;;;7.13;4.37;;;9.30;99.90;;;;;;5034076;28;20508;-69
2023/11/16 10:08:23;;;;;;;10.40;5.23;;;9.30;99.90;;;;;;5032029;28;20457;-68
2023/11/16 10:11:00;;;;;;;9.63;4.60;;;9.30;99.90;;;;;;5032707;28;20485;-68
2023/11/16 10:13:27;;;;;;;9.80;5.27;;;9.30;99.90;;;;;;5030488;28;21073;-68
2023/11/16 10:15:53;;;;;;;10.90;5.40;;;9.30;99.90;;;;;;5032663;28;20436;-68
2023/11/16 10:18:22;;;;;;;9.90;4.93;;;9.40;99.90;;;;;;5030392;28;20451;-68
2023/11/16 10:20:48;;;;;;;7.67;5.10;;;9.40;99.90;;;;;;5032512;28;20448;-68
2023/11/16 10:23:14;;;;;;;11.97;5.43;;;9.40;99.90;;;;;;5031414;28;21019;-68
2023/11/16 10:25:40;;;;;;;8.70;5.13;;;9.30;99.90;;;;;;5032112;28;20417;-68
2023/11/16 10:28:14;;;;;;;8.40;4.60;;;9.40;99.90;;;;;;5031765;28;20224;-68
2023/11/16 10:30:43;;;;;;;9.43;5.10;;;9.40;99.90;;;;;;5031429;28;20430;-68
2023/11/16 10:33:10;;;;;;;6.30;5.00;;;9.40;99.90;;;;;;5037672;28;20424;-68
2023/11/16 10:35:39;;;;;;;9.53;5.00;;;9.40;99.90;;;;;;5037765;28;20443;-68
2023/11/16 10:38:06;;;;;;;8.20;5.10;;;9.50;99.90;;;;;;5032204;28;20425;-67
2023/11/16 10:40:33;;;;;;;7.63;4.77;;;9.40;99.90;;;;;;5031112;28;20916;-69
2023/11/16 10:43:01;;;;;;;8.00;5.10;;;9.40;99.90;;;;;;5032519;28;20973;-68
2023/11/16 10:45:27;;;;;;;12.00;5.77;;;9.30;99.90;;;;;;5030357;28;20431;-68
2023/11/16 10:47:53;;;;;;;8.47;5.73;;;9.30;99.90;;;;;;5031308;28;20454;-68
2023/11/16 10:50:18;;;;;;;12.10;6.20;;;9.30;99.90;;;;;;5031082;28;20425;-68
2023/11/16 10:52:47;;;;;;;10.57;5.30;;;9.30;99.90;;;;;;5032010;28;20832;-68
2023/11/16 10:55:19;;;;;;;14.00;6.40;;;9.30;99.90;;;;;;5031392;28;20189;-68
2023/11/16 10:57:48;;;;;;;7.67;5.20;;;9.20;99.90;;;;;;5032563;28;20444;-68
2023/11/16 11:00:19;;;;;;;10.13;5.60;;;9.30;99.90;;;;;;5031818;28;20421;-68
2023/11/16 11:02:49;;;;;;;14.53;5.77;;;9.20;99.90;;;;;;5031829;28;20428;-68
2023/11/16 11:05:19;;;;;;;16.03;5.30;;;9.20;99.90;;;;;;5030644;28;20432;-68
2023/11/16 11:07:53;;;;;;;8.30;5.10;;;9.30;99.90;;;;;;5031339;28;20425;-68
2023/11/16 11:10:27;;;;;;;11.33;5.70;;;9.30;99.90;;;;;;5031579;28;21048;-68
2023/11/16 11:12:56;;;;;;;9.70;5.07;;;9.30;99.90;;;;;;5032170;28;20429;-68
2023/11/16 11:15:36;;;;;;;5.67;4.10;;;9.30;99.90;;;;;;5030928;28;21155;-68
2023/11/16 11:18:04;;;;;;;6.10;3.97;;;9.40;99.90;;;;;;5030357;28;20473;-68
2023/11/16 11:20:40;;;;;;;9.07;4.40;;;9.30;99.90;;;;;;5031213;28;20981;-68
2023/11/16 11:23:13;;;;;;;6.67;4.77;;;9.30;99.90;;;;;;5032305;28;20455;-68
2023/11/16 11:25:43;;;;;;;6.37;4.80;;;9.30;99.90;;;;;;5029791;28;21292;-69
2023/11/16 11:28:11;;;;;;;9.47;5.23;;;9.30;99.90;;;;;;5032116;28;20559;-68
2023/11/16 11:30:50;;;;;;;8.67;5.33;;;9.40;99.90;;;;;;5030267;28;20977;-68
2023/11/16 11:33:46;;;;;;;9.20;5.40;;;9.30;99.90;;;;;;5030839;28;20476;-68
2023/11/16 11:36:17;;;;;;;7.93;5.50;;;9.30;99.90;;;;;;5028223;28;20848;-68
2023/11/16 11:38:53;;;;;;;9.90;5.37;;;9.30;99.90;;;;;;5030631;28;20565;-68
2023/11/16 11:41:18;;;;;;;10.17;6.13;;;9.30;99.90;;;;;;5031107;28;20446;-69
2023/11/16 11:43:45;;;;;;;10.10;6.30;;;9.20;99.90;;;;;;5029760;28;20429;-68
2023/11/16 11:46:19;;;;;;;8.47;5.80;;;9.20;99.90;;;;;;5031042;28;20439;-69
2023/11/16 11:48:46;;;;;;;8.63;5.73;;;9.10;99.90;;;;;;5030173;28;20828;-68
2023/11/16 11:51:12;;;;;;;7.13;5.70;;;9.20;99.90;;;;;;5030812;28;20823;-68
2023/11/16 11:53:40;;;;;;;10.93;5.90;;;9.20;99.90;;;;;;5030290;28;20428;-68
2023/11/16 11:56:08;;;;;;;10.63;5.90;;;9.20;99.90;;;;;;5031896;28;20510;-68
2023/11/16 11:58:38;;;;;;;10.43;5.93;;;9.20;99.90;;;;;;5029926;28;20436;-68
2023/11/16 12:01:08;;;;;;;5.73;5.13;;;9.20;99.90;;;;;;5030720;28;20516;-68
2023/11/16 12:03:34;;;;;;;6.20;5.10;;;9.20;99.90;;;;;;5029965;28;20511;-68
2023/11/16 12:06:02;;;;;;;10.40;4.53;;;9.20;99.90;;;;;;5030954;28;21042;-68
2023/11/16 12:08:41;;;;;;;6.07;4.60;;;9.20;99.90;;;;;;5033908;28;20915;-68
2023/11/16 12:11:11;;;;;;;6.10;4.07;;;9.30;99.90;;;;;;5033346;28;20433;-68
2023/11/16 12:13:40;;;;;;;6.87;4.10;;;9.30;99.90;;;;;;5030163;28;20507;-68
2023/11/16 12:16:07;;;;;;;6.70;4.40;;;9.30;99.90;;;;;;5030787;28;20484;-68
2023/11/16 12:18:35;;;;;;;4.90;3.70;;;9.30;99.90;;;;;;5029643;28;20430;-68
2023/11/16 12:21:05;;;;;;;8.67;4.30;;;9.30;99.90;;;;;;5031122;28;20435;-68
2023/11/16 12:23:30;;;;;;;5.13;3.37;;;9.30;99.90;;;;;;5029567;28;20420;-68
2023/11/16 12:26:02;;;;;;;5.67;3.17;;;9.30;99.90;;;;;;5030592;28;21095;-68
2023/11/16 12:28:28;;;;;;;6.67;3.40;;;9.30;99.90;;;;;;5030930;28;20582;-68
2023/11/16 12:30:58;;;;;;;5.70;3.77;;;9.30;99.90;;;;;;5028768;28;20434;-67
2023/11/16 12:33:23;;;;;;;3.80;2.53;;;9.30;99.90;;;;;;5045343;28;21018;-68
2023/11/16 12:35:50;;;;;;;3.97;3.40;;;9.30;99.90;;;;;;5028949;28;20515;-68
2023/11/16 12:38:19;;;;;;;7.73;4.30;;;9.30;99.90;;;;;;5030606;28;20562;-68
2023/11/16 12:40:45;;;;;;;10.20;4.30;;;9.30;99.90;;;;;;5028789;28;20445;-68
2023/11/16 12:43:11;;;;;;;9.30;5.57;;;9.40;99.90;;;;;;5030270;28;20497;-68
2023/11/16 12:45:37;;;;;;;10.93;5.87;;;9.40;99.90;;;;;;5029325;28;20193;-67
2023/11/16 12:48:06;;;;;;;8.40;5.47;;;9.50;99.90;;;;;;5030901;28;20486;-68
2023/11/16 12:50:32;;;;;;;11.30;6.40;;;9.50;99.90;;;;;;5030304;28;20931;-68
2023/11/16 12:52:58;;;;;;;8.30;5.10;;;9.50;99.90;;;;;;5029418;28;21117;-68
2023/11/16 12:55:24;;;;;;;10.33;5.00;;;9.50;99.90;;;;;;5029694;28;20444;-68
2023/11/16 12:57:50;;;;;;;10.90;5.20;;;9.50;99.90;;;;;;5029304;28;20531;-68